Rome Heights, Illinois
Current Conditions -  °F | °C
As of 7:55 PM on Friday 19 Dec 2014 (Local Time) from KC75 Reporting Station
Overcast Overcast  
Wind Chill: 29°   Ceiling: 4700
Heat Index: 29°   Visibility: 10mi
Dew Point: 23°   Wind: 0mph
Humidity: 77%   Direction: NA
Pressure: 30.28"   Gusts: NA
Location:  40.915°N, 89.5303°W
Report Text: KC75 200155Z AUTO 00000KT 10SM OVC047 M01/M05 A3028 RMK AO2 T10151051
Loading
Personal Weather Stations






























Interactive Weather Map New forecast layout! Learn more

10-Day Weather Forecast

Advertisements
Track Severe Weather on mobile